Terminal Aerodrome Forecast
Issued by NWS Wilmington, OH

Current Version | Previous Version | Text Only | Print | Product List | Glossary On
Versions: 1 2 3 4 5 6 7 8 9 10 11 12 13 14 15 16 17 18 19
000 FTUS41 KILN 040900 AAA TAFDAY TAF AMD KDAY 040924Z 0409/0506 30006KT 5SM -RA BR SCT015 OVC080 TEMPO 0409/0410 BKN015 FM041030 31008KT P6SM SCT015 OVC080 TEMPO 0414/0418 BKN015 FM041900 32014KT 3SM -SN OVC015 FM050100 34011KT P6SM SCT020 OVC120=

USA.gov is the U.S. government's official web portal to all federal, state and local government web resources and services.